Barra do Choca, Brazil
Current Conditions -  °F | °C
As of 11:00 AM on Saturday 25 Oct 2014 (Local Time) from SBQV Reporting Station
Few Clouds Few Clouds  
Wind Chill: 82°   Ceiling: Unl
Heat Index: 82°   Visibility: 6mi
Dew Point: 59°   Wind: 9mph
Humidity: 45%   Direction: 60°ENE
Pressure: 30.09"   Gusts: NA
Location:  14.88°S, 40.58°W
Report Text: SBQV 251400Z 06008KT 9999 FEW025 28/15 Q1019
Loading
Personal Weather Stations






























Interactive Weather Map
Tropical Storm Tracking
New forecast layout! Learn more

10-Day Weather Forecast

Advertisements
Track Severe Weather on mobile